| time (UTC) | temp F | wind direction | speed MPH | gust MPH | rain 1hr in | rain 24hr in | rain mn in | humidity % | barometer mb |
| 20260506235505 | 71 | 110 | 0.0 | 2.0 | 0.00 | 0.00 | 0.00 | 75 | 1008.1 |
| 20260506235005 | 71 | 107 | 0.0 | 1.0 | 0.00 | 0.00 | 0.00 | 74 | 1008.0 |
| 20260506234504 | 72 | 149 | 1.0 | 2.0 | 0.00 | 0.00 | 0.00 | 74 | 1008.0 |
| 20260506234004 | 72 | 173 | 1.0 | 3.0 | 0.00 | 0.00 | 0.00 | 74 | 1008.0 |
| 20260506232505 | 72 | 286 | 1.0 | 3.0 | 0.00 | 0.00 | 0.00 | 73 | 1007.9 |
| 20260506231504 | 73 | 245 | 2.0 | 5.0 | 0.00 | 0.00 | 0.00 | 73 | 1008.0 |
| 20260506230005 | 73 | 170 | 1.0 | 5.0 | 0.00 | 0.00 | 0.00 | 72 | 1008.0 |
| 20260506224504 | 73 | 129 | 1.0 | 5.0 | 0.00 | 0.00 | 0.00 | 72 | 1007.9 |
| 20260506223505 | 73 | 220 | 3.0 | 7.0 | 0.00 | 0.00 | 0.00 | 72 | 1007.9 |
| 20260506221504 | 73 | 272 | 2.0 | 8.0 | 0.00 | 0.00 | 0.00 | 71 | 1007.9 |
| 20260506221004 | 73 | 309 | 1.0 | 5.0 | 0.00 | 0.00 | 0.00 | 72 | 1007.9 |
| 20260506220505 | 73 | 221 | 2.0 | 6.0 | 0.00 | 0.00 | 0.00 | 72 | 1007.8 |
| 20260506215505 | 73 | 226 | 2.0 | 8.0 | 0.00 | 0.00 | 0.00 | 72 | 1007.8 |
| 20260506215005 | 73 | 140 | 3.0 | 10.0 | 0.00 | 0.00 | 0.00 | 72 | 1007.7 |
| 20260506214505 | 73 | 196 | 4.0 | 15.0 | 0.00 | 0.00 | 0.00 | 72 | 1007.8 |
| 20260506213504 | 73 | 207 | 4.0 | 9.0 | 0.00 | 0.00 | 0.00 | 73 | 1007.9 |
| 20260506211505 | 73 | 265 | 3.0 | 8.0 | 0.00 | 0.00 | 0.00 | 73 | 1007.6 |
| 20260506211005 | 73 | 183 | 3.0 | 10.0 | 0.00 | 0.00 | 0.00 | 73 | 1007.5 |
| 20260506210004 | 72 | 138 | 3.0 | 16.0 | 0.00 | 0.00 | 0.00 | 73 | 1007.6 |
| 20260506203505 | 73 | 189 | 3.0 | 10.0 | 0.00 | 0.00 | 0.00 | 72 | 1007.6 |
| 20260506203005 | 73 | 246 | 4.0 | 10.0 | 0.00 | 0.00 | 0.00 | 71 | 1007.5 |
| 20260506202504 | 73 | 211 | 3.0 | 12.0 | 0.00 | 0.00 | 0.00 | 71 | 1007.6 |
| 20260506201504 | 73 | 190 | 4.0 | 13.0 | 0.00 | 0.00 | 0.00 | 71 | 1007.8 |
| 20260506195505 | 74 | 248 | 5.0 | 10.0 | 0.00 | 0.00 | 0.00 | 71 | 1008.2 |
| 20260506194505 | 73 | 242 | 4.0 | 12.0 | 0.00 | 0.00 | 0.00 | 71 | 1007.7 |
| 20260506194005 | 73 | 204 | 4.0 | 12.0 | 0.00 | 0.00 | 0.00 | 70 | 1007.7 |
| 20260506193505 | 74 | 195 | 3.0 | 12.0 | 0.00 | 0.00 | 0.00 | 70 | 1007.8 |
| 20260506192004 | 73 | 228 | 5.0 | 13.0 | 0.00 | 0.00 | 0.00 | 71 | 1008.3 |
| 20260506190505 | 73 | 165 | 5.0 | 12.0 | 0.00 | 0.00 | 0.00 | 71 | 1008.6 |
| 20260506190005 | 73 | 148 | 3.0 | 12.0 | 0.00 | 0.00 | 0.00 | 72 | 1008.7 |
| 20260506185504 | 73 | 201 | 5.0 | 13.0 | 0.00 | 0.00 | 0.00 | 72 | 1008.6 |
| 20260506184504 | 72 | 165 | 3.0 | 13.0 | 0.00 | 0.00 | 0.00 | 73 | 1008.8 |
| 20260506184004 | 72 | 190 | 2.0 | 8.0 | 0.00 | 0.00 | 0.00 | 73 | 1008.9 |
| 20260506183504 | 72 | 222 | 4.0 | 10.0 | 0.00 | 0.00 | 0.00 | 74 | 1008.9 |
| 20260506181504 | 71 | 181 | 3.0 | 12.0 | 0.00 | 0.00 | 0.00 | 76 | 1009.1 |
| 20260506180504 | 71 | 146 | 5.0 | 12.0 | 0.00 | 0.00 | 0.00 | 76 | 1009.4 |
| 20260506180005 | 71 | 224 | 4.0 | 9.0 | 0.00 | 0.00 | 0.00 | 77 | 1009.3 |
| 20260506175004 | 70 | 209 | 3.0 | 10.0 | 0.00 | 0.00 | 0.00 | 77 | 1009.1 |
| 20260506165504 | 70 | 171 | 6.0 | 12.0 | 0.00 | 0.00 | 0.00 | 73 | 1010.2 |
| 20260506164504 | 70 | 206 | 4.0 | 9.0 | 0.00 | 0.00 | 0.00 | 73 | 1010.3 |
| 20260506164004 | 71 | 209 | 4.0 | 17.0 | 0.00 | 0.00 | 0.00 | 73 | 1010.6 |
| 20260506163505 | 72 | 187 | 6.0 | 14.0 | 0.00 | 0.00 | 0.00 | 69 | 1010.5 |
| 20260506162505 | 74 | 164 | 3.0 | 15.0 | 0.00 | 0.00 | 0.00 | 64 | 1010.5 |
| 20260506161005 | 76 | 157 | 5.0 | 15.0 | 0.00 | 0.00 | 0.00 | 61 | 1010.4 |
| 20260506160504 | 76 | 181 | 5.0 | 12.0 | 0.00 | 0.00 | 0.00 | 61 | 1010.4 |
| 20260506154504 | 75 | 212 | 5.0 | 14.0 | 0.00 | 0.00 | 0.00 | 63 | 1010.6 |
| 20260506152505 | 75 | 214 | 3.0 | 8.0 | 0.00 | 0.00 | 0.00 | 63 | 1010.8 |
| 20260506152005 | 75 | 213 | 3.0 | 10.0 | 0.00 | 0.00 | 0.00 | 63 | 1010.7 |
| 20260506151504 | 74 | 268 | 3.0 | 7.0 | 0.00 | 0.00 | 0.00 | 64 | 1010.7 |
| 20260506151004 | 74 | 138 | 3.0 | 9.0 | 0.00 | 0.00 | 0.00 | 63 | 1010.8 |
| 20260506150504 | 74 | 91 | 3.0 | 8.0 | 0.00 | 0.00 | 0.00 | 64 | 1010.7 |
| 20260506145504 | 74 | 67 | 2.0 | 13.0 | 0.00 | 0.00 | 0.00 | 63 | 1010.8 |
| 20260506143504 | 75 | 161 | 5.0 | 13.0 | 0.00 | 0.00 | 0.00 | 62 | 1010.8 |
| 20260506141504 | 75 | 306 | 4.0 | 10.0 | 0.00 | 0.00 | 0.00 | 62 | 1010.9 |
| 20260506141004 | 75 | 174 | 5.0 | 14.0 | 0.00 | 0.00 | 0.00 | 62 | 1010.9 |
| 20260506140504 | 75 | 190 | 4.0 | 13.0 | 0.00 | 0.00 | 0.00 | 63 | 1010.7 |
| 20260506140005 | 74 | 145 | 4.0 | 12.0 | 0.00 | 0.00 | 0.00 | 63 | 1010.7 |
| 20260506135504 | 73 | 104 | 5.0 | 10.0 | 0.00 | 0.00 | 0.00 | 64 | 1010.8 |
| 20260506132005 | 71 | 136 | 3.0 | 12.0 | 0.00 | 0.00 | 0.00 | 69 | 1011.1 |
| 20260506131504 | 71 | 182 | 4.0 | 8.0 | 0.00 | 0.00 | 0.00 | 69 | 1011.1 |
| 20260506131004 | 71 | 193 | 3.0 | 9.0 | 0.00 | 0.00 | 0.00 | 70 | 1011.1 |
| 20260506130504 | 71 | 216 | 4.0 | 13.0 | 0.00 | 0.00 | 0.00 | 71 | 1011.2 |
| 20260506124004 | 68 | 171 | 2.0 | 8.0 | 0.00 | 0.00 | 0.00 | 75 | 1011.5 |
| 20260506123504 | 68 | 218 | 2.0 | 7.0 | 0.00 | 0.00 | 0.00 | 75 | 1011.5 |
| 20260506122004 | 69 | 196 | 3.0 | 8.0 | 0.00 | 0.00 | 0.00 | 73 | 1011.3 |
| 20260506120005 | 67 | 113 | 3.0 | 7.0 | 0.00 | 0.00 | 0.00 | 77 | 1011.3 |
| 20260506115505 | 66 | 126 | 2.0 | 10.0 | 0.00 | 0.00 | 0.00 | 78 | 1011.3 |
| 20260506115004 | 65 | 161 | 3.0 | 7.0 | 0.00 | 0.00 | 0.00 | 78 | 1011.3 |
| 20260506114504 | 65 | 155 | 2.0 | 8.0 | 0.00 | 0.00 | 0.00 | 78 | 1011.4 |
| 20260506114004 | 66 | 163 | 2.0 | 7.0 | 0.00 | 0.00 | 0.00 | 78 | 1011.3 |
| 20260506112504 | 66 | 161 | 2.0 | 6.0 | 0.00 | 0.00 | 0.00 | 77 | 1011.2 |
| 20260506111504 | 66 | 175 | 3.0 | 10.0 | 0.00 | 0.00 | 0.00 | 78 | 1011.3 |
| 20260506111004 | 65 | 138 | 2.0 | 7.0 | 0.00 | 0.00 | 0.00 | 79 | 1011.3 |
| 20260506110504 | 65 | 124 | 2.0 | 7.0 | 0.00 | 0.00 | 0.00 | 80 | 1011.3 |
| 20260506110004 | 64 | 150 | 2.0 | 6.0 | 0.00 | 0.00 | 0.00 | 80 | 1011.3 |
| 20260506104004 | 63 | 162 | 2.0 | 7.0 | 0.00 | 0.00 | 0.00 | 82 | 1011.5 |
| 20260506103005 | 63 | 112 | 2.0 | 6.0 | 0.00 | 0.00 | 0.00 | 82 | 1011.6 |
| 20260506102504 | 63 | 211 | 3.0 | 8.0 | 0.00 | 0.00 | 0.00 | 82 | 1011.5 |
| 20260506102004 | 63 | 142 | 2.0 | 7.0 | 0.00 | 0.00 | 0.00 | 82 | 1011.6 |
| 20260506101004 | 63 | 124 | 1.0 | 3.0 | 0.00 | 0.00 | 0.00 | 83 | 1011.3 |
| 20260506100504 | 63 | 183 | 2.0 | 8.0 | 0.00 | 0.00 | 0.00 | 83 | 1011.3 |
| 20260506094504 | 63 | 154 | 1.0 | 3.0 | 0.00 | 0.00 | 0.00 | 82 | 1011.4 |
| 20260506093004 | 63 | 141 | 1.0 | 5.0 | 0.00 | 0.00 | 0.00 | 83 | 1011.3 |
| 20260506092504 | 63 | 186 | 3.0 | 9.0 | 0.00 | 0.00 | 0.00 | 83 | 1011.3 |
| 20260506091504 | 63 | 126 | 1.0 | 3.0 | 0.00 | 0.00 | 0.00 | 82 | 1011.2 |
| 20260506091004 | 63 | 163 | 2.0 | 5.0 | 0.00 | 0.00 | 0.00 | 82 | 1011.3 |
| 20260506090505 | 63 | 156 | 1.0 | 5.0 | 0.00 | 0.00 | 0.00 | 82 | 1011.3 |
| 20260506090004 | 63 | 143 | 3.0 | 8.0 | 0.00 | 0.00 | 0.00 | 82 | 1011.2 |
| 20260506085504 | 63 | 170 | 2.0 | 5.0 | 0.00 | 0.00 | 0.00 | 81 | 1011.4 |
| 20260506085004 | 64 | 121 | 2.0 | 6.0 | 0.00 | 0.00 | 0.00 | 81 | 1011.5 |
| 20260506083004 | 64 | 196 | 2.0 | 5.0 | 0.00 | 0.00 | 0.00 | 81 | 1011.5 |
| 20260506082504 | 63 | 173 | 3.0 | 6.0 | 0.00 | 0.00 | 0.00 | 81 | 1011.5 |
| 20260506082004 | 63 | 186 | 2.0 | 9.0 | 0.00 | 0.00 | 0.00 | 81 | 1011.6 |
| 20260506081005 | 63 | 210 | 3.0 | 6.0 | 0.00 | 0.00 | 0.00 | 82 | 1011.6 |
| 20260506080505 | 63 | 161 | 2.0 | 5.0 | 0.00 | 0.00 | 0.00 | 82 | 1011.6 |
| 20260506062505 | 65 | 108 | 1.0 | 3.0 | 0.00 | 0.00 | 0.00 | 80 | 1011.7 |
| 20260506051004 | 66 | 144 | 3.0 | 8.0 | 0.00 | 0.00 | 0.00 | 77 | 1012.0 |
| 20260506050505 | 66 | 185 | 3.0 | 7.0 | 0.00 | 0.00 | 0.00 | 77 | 1012.1 |
| 20260506045005 | 67 | 194 | 3.0 | 7.0 | 0.00 | 0.00 | 0.00 | 76 | 1012.2 |
| 20260506044504 | 67 | 147 | 3.0 | 12.0 | 0.00 | 0.00 | 0.00 | 76 | 1012.1 |
| 20260506043504 | 67 | 94 | 3.0 | 7.0 | 0.00 | 0.00 | 0.00 | 76 | 1012.2 |
| 20260506041504 | 67 | 155 | 5.0 | 13.0 | 0.00 | 0.02 | 0.00 | 76 | 1012.1 |
| 20260506041005 | 67 | 145 | 2.0 | 5.0 | 0.00 | 0.02 | 0.00 | 76 | 1012.1 |
| 20260506040505 | 67 | 153 | 4.0 | 10.0 | 0.00 | 0.04 | 0.00 | 76 | 1012.1 |
| 20260506040005 | 67 | 156 | 3.0 | 14.0 | 0.00 | 0.04 | 0.00 | 75 | 1012.1 |
| 20260506034504 | 67 | 175 | 3.0 | 8.0 | 0.00 | 0.04 | 0.04 | 75 | 1012.1 |
| 20260506032504 | 68 | 154 | 5.0 | 14.0 | 0.00 | 0.04 | 0.04 | 74 | 1012.1 |
| 20260506031004 | 68 | 163 | 3.0 | 10.0 | 0.00 | 0.04 | 0.04 | 74 | 1012.1 |
| 20260506030504 | 68 | 156 | 3.0 | 8.0 | 0.00 | 0.04 | 0.04 | 74 | 1012.1 |
| 20260506030004 | 68 | 195 | 2.0 | 8.0 | 0.00 | 0.04 | 0.04 | 74 | 1012.1 |
| 20260506025505 | 68 | 170 | 4.0 | 12.0 | 0.00 | 0.04 | 0.04 | 74 | 1012.1 |
| 20260506024504 | 68 | 198 | 2.0 | 9.0 | 0.00 | 0.04 | 0.04 | 74 | 1012.1 |
| 20260506024004 | 68 | 136 | 2.0 | 7.0 | 0.00 | 0.04 | 0.04 | 73 | 1012.2 |
| 20260506023005 | 68 | 179 | 2.0 | 12.0 | 0.00 | 0.04 | 0.04 | 73 | 1012.2 |
| 20260506022504 | 69 | 131 | 3.0 | 9.0 | 0.00 | 0.04 | 0.04 | 72 | 1012.1 |
| 20260506022004 | 69 | 170 | 3.0 | 10.0 | 0.00 | 0.04 | 0.04 | 72 | 1012.1 |
| 20260506021004 | 69 | 149 | 4.0 | 13.0 | 0.00 | 0.04 | 0.04 | 72 | 1012.1 |
| 20260506020504 | 69 | 127 | 4.0 | 9.0 | 0.00 | 0.04 | 0.04 | 72 | 1012.2 |
| 20260506014004 | 69 | 147 | 4.0 | 9.0 | 0.00 | 0.04 | 0.04 | 71 | 1012.0 |
| 20260506013504 | 69 | 153 | 3.0 | 12.0 | 0.00 | 0.04 | 0.04 | 71 | 1011.9 |
| 20260506012505 | 69 | 162 | 3.0 | 10.0 | 0.00 | 0.04 | 0.04 | 71 | 1011.8 |
| 20260506012004 | 69 | 139 | 5.0 | 12.0 | 0.00 | 0.04 | 0.04 | 71 | 1011.8 |
| 20260506011004 | 69 | 97 | 2.0 | 9.0 | 0.00 | 0.04 | 0.04 | 72 | 1011.7 |
| 20260506010004 | 69 | 162 | 2.0 | 8.0 | 0.00 | 0.04 | 0.04 | 73 | 1011.7 |
| 20260506005504 | 69 | 130 | 3.0 | 10.0 | 0.00 | 0.04 | 0.04 | 73 | 1011.7 |
| 20260506005004 | 69 | 169 | 3.0 | 9.0 | 0.00 | 0.04 | 0.04 | 73 | 1011.6 |
| 20260506003004 | 69 | 160 | 4.0 | 12.0 | 0.00 | 0.04 | 0.04 | 73 | 1011.3 |
| 20260506001504 | 69 | 128 | 3.0 | 10.0 | 0.00 | 0.04 | 0.04 | 72 | 1011.3 |
| 20260506000504 | 70 | 141 | 3.0 | 15.0 | 0.00 | 0.04 | 0.04 | 71 | 1011.2 |